createdAt,value
2019-03-12T00:01:07.784Z,1021.37
2019-03-12T00:06:07.142Z,1021.31
2019-03-12T00:11:08.022Z,1021.41
2019-03-12T00:16:07.309Z,1021.48
2019-03-12T00:21:07.640Z,1021.46
2019-03-12T00:26:08.051Z,1021.42
2019-03-12T00:31:07.139Z,1021.62
2019-03-12T00:36:07.460Z,1021.7
2019-03-12T00:41:07.331Z,1021.69
2019-03-12T00:46:07.239Z,1021.78
2019-03-12T00:51:07.628Z,1021.89
2019-03-12T00:56:08.076Z,1022.01
2019-03-12T01:00:09.483Z,1022.06
2019-03-12T01:05:07.859Z,1022.07
2019-03-12T01:10:07.626Z,1022.13
2019-03-12T01:15:09.422Z,1022.28
2019-03-12T01:20:08.031Z,1022.32
2019-03-12T01:25:07.498Z,1022.34
2019-03-12T01:29:07.717Z,1022.46
2019-03-12T01:34:06.969Z,1022.52
2019-03-12T01:39:07.721Z,1022.54
2019-03-12T01:44:07.066Z,1022.75
2019-03-12T01:49:07.395Z,1022.75
2019-03-12T01:54:06.830Z,1022.75
2019-03-12T01:59:07.270Z,1022.76
2019-03-12T02:04:10.173Z,1022.79
2019-03-12T02:09:08.920Z,1022.9
2019-03-12T02:13:08.429Z,1022.99
2019-03-12T02:19:07.885Z,1022.99
2019-03-12T02:24:07.267Z,1023.08
2019-03-12T02:28:06.845Z,1023.15
2019-03-12T02:33:07.114Z,1023.2
2019-03-12T02:38:06.532Z,1023.09
2019-03-12T02:43:07.434Z,1023.15
2019-03-12T02:48:06.536Z,1023.17
2019-03-12T02:53:06.853Z,1023.21
2019-03-12T02:58:07.359Z,1023.18
2019-03-12T03:02:06.806Z,1023.18
2019-03-12T03:07:07.235Z,1023.18
2019-03-12T03:12:06.983Z,1023.21
2019-03-12T03:17:06.957Z,1023.18
2019-03-12T03:22:07.392Z,1023.14
2019-03-12T03:27:06.768Z,1023.15
2019-03-12T03:32:06.449Z,1023.27
2019-03-12T03:37:06.656Z,1023.19
2019-03-12T03:41:08.327Z,1023.12
2019-03-12T03:42:06.859Z,1023.12
2019-03-12T03:46:07.119Z,1023.11
2019-03-12T03:51:07.526Z,1023.13
2019-03-12T03:56:07.877Z,1023.25
2019-03-12T04:01:06.439Z,1023.2
2019-03-12T04:06:07.732Z,1023.22
2019-03-12T04:11:06.814Z,1023.37
2019-03-12T04:15:08.680Z,1023.4
2019-03-12T04:16:07.423Z,1023.4
2019-03-12T04:20:06.893Z,1023.35
2019-03-12T04:25:06.198Z,1023.23
2019-03-12T04:30:08.413Z,1023.16
2019-03-12T04:35:06.462Z,1023.14
2019-03-12T04:40:07.157Z,1023.06
2019-03-12T04:45:07.901Z,1023.15
2019-03-12T04:49:08.672Z,1023.2
2019-03-12T04:54:07.474Z,1023.26
2019-03-12T04:59:07.413Z,1023.35
2019-03-12T05:04:06.967Z,1023.38
2019-03-12T05:09:06.832Z,1023.41
2019-03-12T05:14:06.310Z,1023.46
2019-03-12T05:19:06.317Z,1023.52
2019-03-12T05:24:07.639Z,1023.48
2019-03-12T05:29:06.792Z,1023.52
2019-03-12T05:34:07.583Z,1023.48
2019-03-12T05:39:08.287Z,1023.41
2019-03-12T05:43:08.719Z,1023.53
2019-03-12T05:48:07.728Z,1023.44
2019-03-12T05:53:07.214Z,1023.43
2019-03-12T05:58:07.559Z,1023.52
2019-03-12T06:03:06.113Z,1023.54
2019-03-12T06:08:06.455Z,1023.4
2019-03-12T06:13:06.370Z,1023.47
2019-03-12T06:17:06.983Z,1023.54
2019-03-12T06:18:06.108Z,1023.54
2019-03-12T06:22:06.516Z,1023.48
2019-03-12T06:27:06.912Z,1023.45
2019-03-12T06:32:07.083Z,1023.38
2019-03-12T06:37:06.472Z,1023.4
2019-03-12T06:42:07.830Z,1023.38
2019-03-12T06:47:06.196Z,1023.36
2019-03-12T06:52:06.505Z,1023.28
2019-03-12T06:57:06.744Z,1023.23
2019-03-12T07:02:06.175Z,1023.19
2019-03-12T07:07:10.533Z,1023.25
2019-03-12T07:11:06.289Z,1023.28
2019-03-12T07:16:07.116Z,1023.31
2019-03-12T07:21:06.472Z,1023.3
2019-03-12T07:26:06.895Z,1023.22
2019-03-12T07:31:07.025Z,1023.17
2019-03-12T07:36:06.562Z,1023.26
2019-03-12T07:41:06.526Z,1023.22
2019-03-12T07:45:09.459Z,1023.14
2019-03-12T07:46:06.280Z,1023.14
2019-03-12T07:50:07.494Z,1023.19
2019-03-12T07:55:07.728Z,1023.16
2019-03-12T08:00:10.081Z,1023.06
2019-03-12T08:05:07.072Z,1023.03
2019-03-12T08:10:06.565Z,1023.01
2019-03-12T08:15:08.399Z,1023.07
2019-03-12T08:20:07.015Z,1023.01
2019-03-12T08:25:06.607Z,1023.11
2019-03-12T08:30:08.258Z,1023.1
2019-03-12T08:35:06.337Z,1023.01
2019-03-12T08:39:08.470Z,1023
2019-03-12T08:44:07.905Z,1022.91
2019-03-12T08:49:07.096Z,1022.89
2019-03-12T08:54:07.832Z,1023.05
2019-03-12T08:59:07.138Z,1022.88
2019-03-12T09:04:06.706Z,1022.94
2019-03-12T09:09:07.454Z,1022.88
2019-03-12T09:14:06.788Z,1022.77
2019-03-12T09:18:07.984Z,1022.61
2019-03-12T09:19:06.176Z,1022.61
2019-03-12T09:23:07.464Z,1022.47
2019-03-12T09:28:07.751Z,1022.37
2019-03-12T09:33:07.779Z,1022.35
2019-03-12T09:38:08.069Z,1022.31
2019-03-12T09:43:07.939Z,1022.16
2019-03-12T09:48:07.832Z,1022.05
2019-03-12T09:53:07.325Z,1021.91
2019-03-12T09:57:06.835Z,1021.93
2019-03-12T09:58:08.048Z,1021.93
2019-03-12T10:02:06.605Z,1021.72
2019-03-12T10:07:07.053Z,1021.59
2019-03-12T10:12:06.930Z,1021.56
2019-03-12T10:17:07.017Z,1021.48
2019-03-12T10:22:06.573Z,1021.47
2019-03-12T10:27:07.013Z,1021.4
2019-03-12T10:32:06.929Z,1021.26
2019-03-12T10:37:11.640Z,1021.23
2019-03-12T10:42:07.122Z,1021.29
2019-03-12T10:46:07.088Z,1021.13
2019-03-12T10:47:06.295Z,1021.13
2019-03-12T10:51:06.829Z,1020.98
2019-03-12T10:56:06.403Z,1020.98
2019-03-12T11:01:06.925Z,1020.93
2019-03-12T11:06:06.456Z,1020.74
2019-03-12T11:11:06.379Z,1020.75
2019-03-12T11:16:06.875Z,1020.66
2019-03-12T11:20:07.404Z,1020.7
2019-03-12T11:21:06.725Z,1020.7
2019-03-12T11:25:07.235Z,1020.57
2019-03-12T11:30:08.253Z,1020.47
2019-03-12T11:35:06.566Z,1020.21
2019-03-12T11:40:06.365Z,1020.23
2019-03-12T11:45:14.539Z,1019.98
2019-03-12T11:50:06.218Z,1019.97
2019-03-12T11:55:06.736Z,1019.93
2019-03-12T12:00:07.712Z,1019.8
2019-03-12T12:05:06.974Z,1019.83
2019-03-12T12:09:06.835Z,1019.72
2019-03-12T12:14:06.349Z,1019.63
2019-03-12T12:19:07.066Z,1019.44
2019-03-12T12:24:07.373Z,1019.23
2019-03-12T12:29:06.697Z,1019.12
2019-03-12T12:34:06.936Z,1018.98
2019-03-12T12:39:07.612Z,1018.88
2019-03-12T12:43:07.874Z,1018.75
2019-03-12T12:48:07.350Z,1018.6
2019-03-12T12:53:06.978Z,1018.51
2019-03-12T12:58:07.011Z,1018.46
2019-03-12T13:03:07.793Z,1018.35
2019-03-12T13:08:06.129Z,1018.24
2019-03-12T13:13:06.749Z,1018.02
2019-03-12T13:18:07.413Z,1017.89
2019-03-12T13:23:06.733Z,1017.84
2019-03-12T13:28:07.079Z,1017.77
2019-03-12T13:33:06.316Z,1017.72
2019-03-12T13:37:07.761Z,1017.6
2019-03-12T13:42:07.576Z,1017.43
2019-03-12T13:47:07.547Z,1017.26
2019-03-12T13:52:08.354Z,1017.21
2019-03-12T13:57:07.742Z,1017.18
2019-03-12T14:02:06.341Z,1017.04
2019-03-12T14:07:06.636Z,1016.95
2019-03-12T14:12:06.479Z,1016.89
2019-03-12T14:16:07.971Z,1016.84
2019-03-12T14:17:08.354Z,1016.84
2019-03-12T14:21:07.860Z,1016.74
2019-03-12T14:26:07.122Z,1016.56
2019-03-12T14:31:07.282Z,1016.51
2019-03-12T14:36:08.326Z,1016.43
2019-03-12T14:41:08.544Z,1016.39
2019-03-12T14:46:07.808Z,1016.31
2019-03-12T14:51:07.245Z,1016.2
2019-03-12T14:56:07.655Z,1016.16
2019-03-12T15:01:06.464Z,1016.05
2019-03-12T15:05:07.758Z,1015.87
2019-03-12T15:10:07.693Z,1015.71
2019-03-12T15:15:09.300Z,1015.61
2019-03-12T15:20:07.203Z,1015.41
2019-03-12T15:25:07.564Z,1015.34
2019-03-12T15:30:09.142Z,1015.14
2019-03-12T15:35:08.048Z,1014.99
2019-03-12T15:39:06.933Z,1014.91
2019-03-12T15:44:06.288Z,1014.87
2019-03-12T15:49:07.128Z,1014.72
2019-03-12T15:54:07.544Z,1014.62
2019-03-12T15:59:06.881Z,1014.43
2019-03-12T16:04:07.336Z,1014.25
2019-03-12T16:08:07.076Z,1014.07
2019-03-12T16:13:07.898Z,1013.93
2019-03-12T16:18:06.422Z,1013.76
2019-03-12T16:23:06.333Z,1013.5
2019-03-12T16:28:06.757Z,1013.32
2019-03-12T16:33:06.733Z,1013.13
2019-03-12T16:38:07.045Z,1013.1
2019-03-12T16:43:06.914Z,1012.97
2019-03-12T16:48:07.022Z,1012.9
2019-03-12T16:52:06.909Z,1012.74
2019-03-12T16:53:06.368Z,1012.74
2019-03-12T16:57:06.759Z,1012.75
2019-03-12T17:02:07.735Z,1012.65
2019-03-12T17:07:06.122Z,1012.41
2019-03-12T17:12:07.938Z,1012.24
2019-03-12T17:17:07.046Z,1012.26
2019-03-12T17:22:07.492Z,1012.2
2019-03-12T17:27:07.810Z,1012.14
2019-03-12T17:32:06.729Z,1012.11
2019-03-12T17:37:06.986Z,1011.92
2019-03-12T17:42:06.773Z,1011.79
2019-03-12T17:46:07.825Z,1011.69
2019-03-12T17:51:06.422Z,1011.54
2019-03-12T17:56:06.849Z,1011.49
2019-03-12T18:01:07.219Z,1011.26
2019-03-12T18:06:07.741Z,1011.2
2019-03-12T18:11:06.626Z,1011.05
2019-03-12T18:15:09.202Z,1010.83
2019-03-12T18:20:07.107Z,1010.73
2019-03-12T18:25:06.679Z,1010.62
2019-03-12T18:30:08.651Z,1010.52
2019-03-12T18:35:07.080Z,1010.28
2019-03-12T18:40:07.047Z,1010.2
2019-03-12T18:45:07.305Z,1010.16
2019-03-12T18:49:07.934Z,1009.93
2019-03-12T18:50:06.197Z,1009.93
2019-03-12T18:55:06.652Z,1009.9
2019-03-12T18:59:07.924Z,1009.86
2019-03-12T19:04:06.478Z,1009.7
2019-03-12T19:09:07.359Z,1009.74
2019-03-12T19:14:06.707Z,1009.58
2019-03-12T19:19:06.101Z,1009.39
2019-03-12T19:24:06.444Z,1009.14
2019-03-12T19:29:06.873Z,1008.97
2019-03-12T19:34:06.278Z,1008.77
2019-03-12T19:38:06.657Z,1008.57
2019-03-12T19:43:06.332Z,1008.38
2019-03-12T19:48:06.306Z,1008.23
2019-03-12T19:53:06.819Z,1008.21
2019-03-12T19:58:06.248Z,1007.94
2019-03-12T20:03:11.937Z,1007.68
2019-03-12T20:08:06.677Z,1007.46
2019-03-12T20:13:07.930Z,1007.4
2019-03-12T20:18:07.711Z,1007.38
2019-03-12T20:22:07.495Z,1007.31
2019-03-12T20:23:07.318Z,1007.31
2019-03-12T20:27:06.782Z,1007.24
2019-03-12T20:32:06.766Z,1007.04
2019-03-12T20:37:06.174Z,1006.87
2019-03-12T20:42:08.013Z,1006.61
2019-03-12T20:47:07.374Z,1006.49
2019-03-12T20:52:06.889Z,1006.37
2019-03-12T20:57:06.318Z,1006.12
2019-03-12T21:02:06.528Z,1006.2
2019-03-12T21:07:07.885Z,1006.3
2019-03-12T21:11:06.872Z,1006.14
2019-03-12T21:16:06.330Z,1006.16
2019-03-12T21:21:06.801Z,1006.09
2019-03-12T21:26:07.191Z,1006
2019-03-12T21:31:07.827Z,1005.85
2019-03-12T21:36:09.332Z,1005.71
2019-03-12T21:41:06.520Z,1005.52
2019-03-12T21:45:08.691Z,1005.37
2019-03-12T21:46:07.252Z,1005.37
2019-03-12T21:50:06.575Z,1005.32
2019-03-12T21:55:07.175Z,1005.11
2019-03-12T22:00:08.790Z,1005
2019-03-12T22:05:07.884Z,1004.92
2019-03-12T22:10:07.680Z,1004.76
2019-03-12T22:15:09.387Z,1004.55
2019-03-12T22:20:08.050Z,1004.47
2019-03-12T22:25:07.509Z,1004.27
2019-03-12T22:30:08.124Z,1004.18
2019-03-12T22:35:06.298Z,1003.98
2019-03-12T22:39:08.095Z,1003.92
2019-03-12T22:44:07.592Z,1003.92
2019-03-12T22:49:06.549Z,1003.93
2019-03-12T22:54:06.972Z,1003.87
2019-03-12T22:59:06.338Z,1003.81
2019-03-12T23:04:07.976Z,1003.66
2019-03-12T23:09:07.544Z,1003.43
2019-03-12T23:14:07.151Z,1003.38
2019-03-12T23:18:06.545Z,1003.25
2019-03-12T23:23:06.974Z,1003.12
2019-03-12T23:28:06.422Z,1003.14
2019-03-12T23:33:06.577Z,1002.98
2019-03-12T23:38:07.069Z,1002.83
2019-03-12T23:43:06.722Z,1002.58
2019-03-12T23:48:06.954Z,1002.7
2019-03-12T23:53:06.342Z,1002.65
2019-03-12T23:58:06.708Z,1002.7
